x

9444090 - Port Angeles, Wa (ptaw1) Weather Station

1:36pm - Sun 18th Nov 2018 All times are PST. -8 hours from GMT.

  • Wind
    5mph, 6mph gusts
  • Sea Temp 49°f
  • Air Temp 48°f
  • Sea Pressure 1022.3mb
  • 9444090 - Port Angeles, Wa
  • 9444090 - Port Angeles, Wa

More Historic Weather Station data

Upgrade to MSW Pro to gain access to the past 30 days of data for over 8000 Wavebouys and Weather Stations around the globe.

Join

Comparision Forecast

View Surf forecast
   
Sun 11/18 1:36pm 5 6 mph 1022.3mb 49f 48f
1:30pm 5 6 mph 1022.4mb 49f 47f
1:24pm 5 7 mph 1022.5mb 49f 47f
1:18pm 5 6 mph 1022.5mb 49f 47f
1:12pm 6 7 mph 1022.5mb 49f 47f
1:06pm 6 7 mph 1022.6mb 49f 48f
1:00pm 7 8 mph 1022.5mb 49f 48f
12:36pm 5 7 mph 1022.7mb 49f 47f
12:30pm 6 7 mph 1022.8mb 49f 47f
12:24pm 7 8 mph 1022.8mb 49f 48f
12:18pm 6 8 mph 1022.9mb 49f 47f
12:12pm 5 7 mph 1023mb 49f 47f
12:06pm 3 7 mph 1023mb 49f 47f
12:00pm 5 7 mph 1023mb 49f 47f
11:36am 5 7 mph 1023.2mb 49f 46f
11:30am 5 6 mph 1023.3mb 49f 47f
11:24am 5 6 mph 1023.4mb 49f 47f
11:18am 5 8 mph 1023.5mb 49f 47f
11:12am 6 7 mph 1023.6mb 49f 46f
11:06am 5 9 mph 1023.7mb 49f 47f
11:00am 5 7 mph 1023.7mb 49f 47f
9:36am  -  2 mph 1023.7mb 49f 48f
9:30am 1 2 mph 1023.7mb 49f 46f
9:24am 2 2 mph 1023.8mb 49f 46f
9:18am 1 2 mph 1023.8mb 49f 45f
9:12am 2 5 mph 1023.7mb 49f 44f
9:06am 5 6 mph 1023.7mb 49f 44f
9:00am 5 6 mph 1023.8mb 49f 43f
8:36am 3 5 mph 1023.6mb 49f 40f
8:30am 3 5 mph 1023.6mb 49f 40f
8:24am 3 3 mph 1023.5mb 49f 39f
8:18am 2 3 mph 1023.5mb 49f 39f
8:12am 3 3 mph 1023.4mb 49f 38f
8:06am 3 6 mph 1023.3mb 49f 39f
8:00am 3 6 mph 1023.3mb 49f 38f
7:36am 5 6 mph 1023.3mb 49f 37f
7:30am 5 6 mph 1023.4mb 49f 37f
7:24am 3 5 mph 1023.4mb 49f 37f
7:18am 3 5 mph 1023.6mb 49f 37f
7:12am 3 5 mph 1023.7mb 49f 38f
7:06am 3 5 mph 1023.7mb 49f 37f
7:00am 3 6 mph 1023.9mb 49f 37f
6:36am 3 6 mph 1024.1mb 49f 38f
6:30am 5 6 mph 1024.1mb 49f 38f
6:24am 5 6 mph 1024.1mb 49f 38f
6:18am 5 6 mph 1024.1mb 49f 38f
6:12am 5 7 mph 1024mb 49f 38f
6:06am 6 6 mph 1023.9mb 49f 39f
6:00am 3 7 mph 1023.9mb 49f 39f
5:36am 5 6 mph 1023.8mb 49f 39f
5:30am 5 6 mph 1023.8mb 49f 39f
5:24am 6 6 mph 1023.7mb 49f 39f
5:18am 5 6 mph 1023.7mb 49f 39f
5:12am 5 5 mph 1023.7mb 49f 39f
5:06am 5 5 mph 1023.8mb 49f 39f
5:00am 3 5 mph 1023.8mb 49f 40f
4:36am 5 6 mph 1024mb 49f 39f
4:30am 5 6 mph 1024.1mb 49f 39f
4:24am 5 6 mph 1024.1mb 49f 38f
4:18am 3 5 mph 1024.1mb 49f 38f
4:12am 3 5 mph 1024mb 49f 38f
4:06am 3 5 mph 1024mb 49f 38f
4:00am 5 6 mph 1024mb 49f 38f
3:36am 5 6 mph 1024mb 49f 38f
3:30am 1 3 mph 1024.1mb 49f 38f
3:24am 3 6 mph 1024.1mb 49f 38f
3:18am 5 6 mph 1024mb 49f 38f
3:12am 3 6 mph 1024.1mb 49f 38f
3:06am 6 7 mph 1024.1mb 49f 38f
3:00am 7 8 mph 1024.2mb 49f 38f
2:36am 6 7 mph 1024.2mb 49f 38f
2:30am 6 7 mph 1024.1mb 49f 38f
2:24am 6 6 mph 1024.1mb 49f 39f
2:18am 3 5 mph 1024.2mb 49f 38f
2:12am 5 6 mph 1024.2mb 49f 38f
2:06am 3 5 mph 1024.3mb 49f 38f
2:00am 3 5 mph 1024.4mb 49f 38f
12:36am 6 7 mph 1025.1mb 49f 37f
12:30am 5 6 mph 1025.1mb 49f 37f
12:24am 3 6 mph 1025mb 49f 37f
12:18am 6 7 mph 1025mb 49f 37f
12:12am 6 7 mph 1024.9mb 49f 37f
12:06am 6 8 mph 1024.9mb 49f 37f
12:00am 6 8 mph 1024.8mb 49f 37f
Sat 11/17 11:36pm 5 7 mph 1024.5mb 49f 36f
11:30pm 6 8 mph 1024.5mb 49f 36f
11:24pm 6 7 mph 1024.5mb 49f 36f
11:18pm 6 7 mph 1024.5mb 49f 36f
11:12pm 7 8 mph 1024.5mb 49f 36f
11:06pm 7 9 mph 1024.4mb 49f 36f
11:00pm 8 9 mph 1024.5mb 49f 37f
10:36pm 6 7 mph 1024.6mb 49f 37f
10:30pm 6 7 mph 1024.6mb 49f 37f
10:24pm 7 8 mph 1024.6mb 49f 37f
10:18pm 7 9 mph 1024.7mb 49f 37f
10:12pm 8 9 mph 1024.7mb 49f 37f
10:06pm 7 8 mph 1024.7mb 49f 37f
10:00pm 7 9 mph 1024.7mb 49f 37f
9:36pm 5 6 mph 1024.8mb 49f 37f
9:30pm 5 6 mph 1024.8mb 49f 37f
9:24pm 5 6 mph 1024.9mb 49f 37f
9:18pm 5 6 mph 1024.9mb 49f 37f
9:12pm 5 6 mph 1024.9mb 49f 37f
9:06pm 6 7 mph 1025mb 49f 37f
9:00pm 5 7 mph 1025mb 49f 37f
8:36pm 5 8 mph 1025.1mb 49f 38f
8:30pm 5 7 mph 1025.2mb 49f 38f
8:24pm 5 6 mph 1025.2mb 49f 38f
8:18pm 6 7 mph 1025.2mb 49f 38f
8:12pm 5 6 mph 1025.3mb 49f 38f
8:06pm 6 7 mph 1025.3mb 49f 38f
8:00pm 7 9 mph 1025.4mb 49f 38f
7:36pm 9 10 mph 1025.5mb 49f 38f
7:30pm 9 11 mph 1025.5mb 49f 38f
7:24pm 7 9 mph 1025.6mb 49f 38f
7:18pm 7 9 mph 1025.6mb 49f 38f
7:12pm 8 9 mph 1025.6mb 49f 38f
7:06pm 8 9 mph 1025.6mb 49f 38f
7:00pm 8 9 mph 1025.6mb 49f 38f
6:36pm 6 8 mph 1025.6mb 49f 39f
6:30pm 6 8 mph 1025.7mb 49f 39f
6:24pm 7 8 mph 1025.8mb 49f 39f
6:18pm 7 9 mph 1025.8mb 49f 39f
6:12pm 6 8 mph 1025.8mb 49f 39f
6:06pm 7 9 mph 1025.9mb 49f 39f
6:00pm 8 10 mph 1026mb 49f 39f
5:36pm 7 8 mph 1025.9mb 49f 40f
5:30pm 6 7 mph 1026mb 49f 40f
5:24pm 5 6 mph 1026mb 49f 40f
5:18pm 6 7 mph 1026mb 49f 41f
5:12pm 6 7 mph 1026mb 49f 41f
5:06pm 7 8 mph 1026mb 49f 41f
5:00pm 6 7 mph 1026mb 49f 41f
4:36pm 3 5 mph 1026.1mb 49f 43f
4:30pm 2 3 mph 1026mb 49f 43f
4:24pm 2 2 mph 1026mb 49f 44f
4:18pm  -  2 mph 1026mb 49f 46f
4:12pm 1 2 mph 1026mb 49f 46f
4:06pm 1 3 mph 1026mb 49f 47f
4:00pm 2 5 mph 1025.9mb 49f 48f
3:36pm 2 5 mph 1025.9mb 49f 49f
3:30pm 5 5 mph 1025.9mb 49f 49f
3:24pm 3 5 mph 1025.9mb 49f 49f
3:18pm 3 3 mph 1025.9mb 49f 49f
3:12pm 2 3 mph 1026mb 49f 49f
3:06pm 2 3 mph 1026mb 49f 49f
3:00pm 2 5 mph 1026mb 49f 49f
2:36pm 3 6 mph 1026.3mb 49f 49f
2:30pm 5 6 mph 1026.3mb 49f 49f
2:24pm 3 5 mph 1026.5mb 49f 49f
2:18pm 3 6 mph 1026.6mb 49f 48f
2:12pm 5 6 mph 1026.6mb 49f 48f
2:06pm 5 6 mph 1026.7mb 49f 49f
2:00pm 6 7 mph 1026.7mb 49f 49f
1:36pm 6 8 mph 1026.9mb 49f 48f
1:30pm 6 8 mph 1026.9mb 49f 48f
1:24pm 6 8 mph 1027mb 49f 48f
1:18pm 6 7 mph 1027mb 49f 48f
1:12pm 6 8 mph 1027mb 49f 48f
1:06pm 5 9 mph 1027mb 49f 48f
1:00pm 6 8 mph 1027.1mb 49f 48f
12:36pm 6 9 mph 1027.2mb 49f 48f
12:30pm 6 8 mph 1027.2mb 49f 48f
12:24pm 7 10 mph 1027.3mb 49f 48f
12:18pm 9 10 mph 1027.4mb 49f 49f
12:12pm 8 10 mph 1027.5mb 49f 49f
12:06pm 8 10 mph 1027.6mb 49f 48f
12:00pm 8 10 mph 1027.7mb 49f 49f
11:36am 5 7 mph 1027.9mb 49f 48f
11:30am 6 9 mph 1027.9mb 49f 48f
11:24am 6 9 mph 1027.9mb 49f 48f
11:18am 7 9 mph 1027.9mb 49f 49f
11:12am 6 8 mph 1027.9mb 49f 50f
11:06am 5 6 mph 1027.9mb 49f 50f
11:00am 3 7 mph 1027.9mb 49f 51f
10:36am 2 2 mph 1027.8mb 49f 49f
10:30am 1 2 mph 1027.8mb 49f 48f
10:24am 1 2 mph 1027.8mb 49f 47f
10:18am 2 5 mph 1027.8mb 49f 47f
10:12am 2 5 mph 1027.8mb 49f 47f
10:06am  -  2 mph 1027.8mb 49f 49f
10:00am 1 3 mph 1027.8mb 49f 49f
9:36am 3 5 mph 1028mb 49f 48f
9:30am 3 5 mph 1028mb 49f 47f
9:24am 5 6 mph 1028mb 49f 47f
9:18am 5 6 mph 1028mb 49f 47f
9:12am 5 6 mph 1028.1mb 49f 47f
9:06am 5 7 mph 1028.1mb 49f 47f
9:00am 6 9 mph 1028.1mb 49f 45f
8:36am 3 6 mph 1028.1mb 49f 44f
8:30am 6 7 mph 1028mb 49f 44f
8:24am 5 6 mph 1028.1mb 49f 44f
8:18am 6 8 mph 1028.1mb 49f 43f
8:12am 7 8 mph 1028.1mb 49f 42f
8:06am 8 9 mph 1028.1mb 49f 41f
8:00am 8 9 mph 1028.1mb 49f 40f
7:36am 8 10 mph 1027.8mb 49f 38f
7:30am 8 9 mph 1027.8mb 49f 38f
7:24am 8 10 mph 1027.7mb 49f 38f
7:18am 8 10 mph 1027.7mb 49f 38f
7:12am 8 9 mph 1027.7mb 49f 38f
7:06am 7 9 mph 1027.7mb 49f 37f
7:00am 8 9 mph 1027.7mb 49f 38f
6:36am 7 9 mph 1027.7mb 49f 38f
6:30am 8 9 mph 1027.6mb 49f 38f
6:24am 6 8 mph 1027.6mb 49f 38f
6:18am 7 8 mph 1027.6mb 49f 38f
6:12am 7 8 mph 1027.6mb 49f 38f
6:06am 7 8 mph 1027.5mb 49f 38f
6:00am 7 9 mph 1027.6mb 49f 38f
5:36am 8 9 mph 1027.5mb 49f 38f
5:30am 8 10 mph 1027.6mb 49f 38f
5:24am 6 9 mph 1027.6mb 49f 38f
5:18am 6 8 mph 1027.6mb 49f 38f
5:12am 7 9 mph 1027.6mb 49f 38f
5:06am 8 11 mph 1027.6mb 49f 38f
5:00am 10 11 mph 1027.5mb 49f 38f
4:36am 9 11 mph 1027.3mb 49f 38f
4:30am 10 11 mph 1027.3mb 49f 38f
4:24am 10 11 mph 1027.3mb 49f 38f
4:18am 10 13 mph 1027.4mb 49f 38f
4:12am 10 11 mph 1027.4mb 49f 38f
4:06am 9 11 mph 1027.4mb 49f 38f
4:00am 9 11 mph 1027.4mb 49f 38f
3:36am 9 11 mph 1027.4mb 49f 39f
3:30am 9 10 mph 1027.5mb 49f 39f
3:24am 8 10 mph 1027.5mb 49f 39f
3:18am 8 10 mph 1027.5mb 49f 39f
3:12am 8 10 mph 1027.5mb 49f 39f
3:06am 9 11 mph 1027.5mb 49f 39f
3:00am 9 11 mph 1027.5mb 49f 39f
2:36am 10 11 mph 1027.5mb 49f 40f
2:30am 8 11 mph 1027.6mb 49f 39f
2:24am 9 10 mph 1027.6mb 49f 40f
2:18am 9 11 mph 1027.6mb 49f 40f
2:12am 9 11 mph 1027.6mb 49f 40f
2:06am 9 11 mph 1027.6mb 49f 40f
2:00am 9 11 mph 1027.5mb 49f 40f
1:36am 10 11 mph 1027.5mb 49f 40f
1:30am 9 11 mph 1027.6mb 49f 40f
1:24am 8 10 mph 1027.6mb 49f 40f
1:18am 8 10 mph 1027.5mb 49f 40f
1:12am 7 9 mph 1027.5mb 49f 40f
1:06am 7 11 mph 1027.5mb 49f 41f
1:00am 9 11 mph 1027.5mb 49f 41f
12:36am 9 10 mph 1027.5mb 49f 41f
12:30am 8 10 mph 1027.5mb 49f 41f
12:24am 9 11 mph 1027.4mb 49f 41f
12:18am 9 11 mph 1027.4mb 49f 41f
12:12am 10 11 mph 1027.3mb 49f 41f
12:06am 9 10 mph 1027.3mb 49f 41f
12:00am 9 10 mph 1027.3mb 49f 41f
Fri 11/16 11:36pm 9 11 mph 1027.2mb 49f 41f
11:30pm 9 11 mph 1027.2mb 49f 41f
11:24pm 10 11 mph 1027.1mb 49f 41f
11:18pm 9 11 mph 1027.1mb 49f 41f
11:12pm 7 11 mph 1027.1mb 49f 41f
11:06pm 9 11 mph 1027.1mb 49f 41f
11:00pm 9 11 mph 1027.1mb 49f 41f
10:36pm 7 10 mph 1027mb 49f 41f
10:30pm 9 11 mph 1026.9mb 49f 42f
10:24pm 7 11 mph 1026.9mb 49f 42f
10:18pm 10 11 mph 1026.7mb 49f 42f
10:12pm 9 11 mph 1026.7mb 49f 42f
10:06pm 9 11 mph 1026.7mb 49f 42f
10:00pm 9 13 mph 1026.7mb 49f 42f
9:36pm 10 11 mph 1026.7mb 49f 42f
9:30pm 9 11 mph 1026.6mb 49f 42f
9:24pm 9 10 mph 1026.7mb 49f 42f
9:18pm 8 10 mph 1026.6mb 49f 42f
9:12pm 7 9 mph 1026.6mb 49f 43f
9:06pm 6 9 mph 1026.5mb 49f 43f
9:00pm 7 9 mph 1026.6mb 49f 43f
8:36pm 7 11 mph 1026.4mb 49f 43f
8:30pm 8 10 mph 1026.4mb 49f 44f
8:24pm 6 8 mph 1026.4mb 49f 44f
8:18pm 5 7 mph 1026.4mb 49f 43f
8:12pm 2 5 mph 1026.4mb 49f 43f
8:06pm 3 5 mph 1026.3mb 49f 43f
8:00pm 3 7 mph 1026.3mb 49f 44f
7:36pm 3 6 mph 1026.1mb 49f 44f
7:30pm 2 6 mph 1026.1mb 49f 44f
7:24pm 5 6 mph 1026mb 49f 43f
7:18pm 5 7 mph 1025.9mb 49f 43f
7:12pm 3 6 mph 1025.9mb 49f 44f
7:06pm 1 3 mph 1025.8mb 49f 44f
7:00pm 3 6 mph 1025.7mb 49f 44f
6:36pm 3 5 mph 1025.5mb 49f 45f
6:30pm 3 6 mph 1025.5mb 49f 44f
6:24pm 5 6 mph 1025.4mb 49f 45f
6:18pm 1 7 mph 1025.4mb 49f 45f
6:12pm 5 6 mph 1025.3mb 49f 45f
6:06pm 5 6 mph 1025.3mb 49f 45f
6:00pm 3 5 mph 1025.3mb 49f 45f
5:36pm 3 5 mph 1025.3mb 49f 46f
5:30pm 3 5 mph 1025.3mb 49f 46f
5:24pm 3 5 mph 1025.3mb 49f 46f
5:18pm 3 5 mph 1025.3mb 49f 46f
5:12pm 3 5 mph 1025.3mb 49f 47f
5:06pm 3 5 mph 1025.3mb 49f 47f
5:00pm 3 5 mph 1025.3mb 49f 47f
4:36pm 3 5 mph 1025.2mb 49f 49f
4:30pm 3 3 mph 1025.2mb 49f 49f
4:24pm 3 3 mph 1025.2mb 49f 50f
4:18pm 3 3 mph 1025.2mb 49f 50f
4:12pm 2 5 mph 1025.1mb 49f 51f
4:06pm 3 5 mph 1025.1mb 49f 51f
4:00pm 3 5 mph 1025.1mb 49f 51f
3:36pm 6 6 mph 1025.1mb 49f 51f
3:30pm 5 6 mph 1025.1mb 49f 51f
3:24pm 6 6 mph 1025.1mb 49f 51f
3:18pm 5 6 mph 1025.1mb 49f 51f
3:12pm 5 5 mph 1025.1mb 49f 51f
3:06pm 3 5 mph 1025.1mb 49f 51f
3:00pm 3 5 mph 1025mb 49f 51f
2:36pm 3 5 mph 1024.9mb 49f 51f
2:30pm 5 6 mph 1024.9mb 49f 51f
2:24pm 5 6 mph 1024.9mb 49f 51f
2:18pm 6 6 mph 1024.9mb 49f 51f
2:12pm 6 7 mph 1024.9mb 49f 51f
2:06pm 3 6 mph 1024.9mb 49f 51f
2:00pm 5 6 mph 1024.9mb 49f 51f
1:36pm 5 6 mph 1024.9mb 49f 51f
1:30pm 5 7 mph 1024.9mb 49f 51f
1:24pm 6 8 mph 1025mb 49f 51f
1:18pm 5 7 mph 1025mb 49f 51f
1:12pm 5 7 mph 1025mb 49f 51f
1:06pm 6 8 mph 1025mb 49f 51f
1:00pm 7 8 mph 1025.1mb 49f 51f
12:36pm 6 7 mph 1025.1mb 49f 51f
12:30pm 6 7 mph 1025.1mb 49f 51f
12:24pm 3 5 mph 1025.1mb 49f 51f
12:18pm 5 6 mph 1025.1mb 49f 51f
12:12pm 6 7 mph 1025.1mb 49f 51f
12:06pm 6 7 mph 1025.1mb 49f 51f
12:00pm 6 8 mph 1025mb 49f 51f
11:36am 8 9 mph 1025mb 49f 51f
11:30am 6 8 mph 1025.1mb 49f 51f
11:24am 7 8 mph 1025.1mb 49f 51f
11:18am 6 8 mph 1025.1mb 49f 51f
11:12am 6 8 mph 1025.3mb 49f 51f
11:06am 5 6 mph 1025.4mb 49f 51f
11:00am 6 6 mph 1025.5mb 49f 51f
9:36am 6 8 mph 1025.3mb 49f 50f
9:30am 7 8 mph 1025.2mb 49f 51f
9:24am 6 8 mph 1025.2mb 49f 51f
9:18am 6 8 mph 1025.2mb 49f 51f
9:12am 5 7 mph 1025.1mb 49f 51f
9:06am 6 6 mph 1025.1mb 49f 51f
9:00am 6 8 mph 1025mb 49f 51f
8:36am 7 9 mph 1024.7mb 49f 51f
8:30am 6 7 mph 1024.6mb 49f 51f
8:24am 5 7 mph 1024.5mb 49f 50f
8:18am 3 6 mph 1024.4mb 49f 50f
8:12am 3 5 mph 1024.3mb 49f 50f
8:06am 3 6 mph 1024.3mb 49f 50f
8:00am 5 7 mph 1024.2mb 49f 50f
7:36am 3 6 mph 1024.1mb 49f 50f
7:30am 5 6 mph 1024.1mb 49f 50f
7:24am 5 7 mph 1024.1mb 49f 50f
7:18am 6 7 mph 1024mb 49f 50f
7:12am 5 6 mph 1024mb 49f 50f
7:06am 5 7 mph 1024mb 49f 50f
7:00am 5 6 mph 1024mb 49f 50f
6:36am 3 5 mph 1024.1mb 49f 50f
6:30am 3 5 mph 1024.1mb 49f 50f
6:24am 2 3 mph 1024.2mb 49f 50f
6:18am 2 3 mph 1024.2mb 49f 50f
6:12am 3 3 mph 1024.2mb 49f 50f
6:06am 2 3 mph 1024.2mb 49f 50f
6:00am 3 3 mph 1024.2mb 49f 50f
5:36am 2 3 mph 1023.8mb 49f 50f
5:30am 3 5 mph 1023.8mb 49f 50f
5:24am 3 5 mph 1023.8mb 49f 50f
5:18am 3 5 mph 1023.8mb 49f 50f
5:12am 3 5 mph 1023.8mb 49f 50f
5:06am 3 5 mph 1023.8mb 49f 50f
5:00am 3 5 mph 1023.7mb 49f 50f
4:36am 3 5 mph 1023.5mb 49f 50f
4:30am 3 6 mph 1023.5mb 49f 50f
4:24am 3 5 mph 1023.5mb 49f 50f
4:18am 3 5 mph 1023.5mb 49f 50f
4:12am 3 5 mph 1023.4mb 49f 50f
4:06am 5 5 mph 1023.4mb 49f 50f
4:00am 3 5 mph 1023.3mb 49f 50f
3:36am 6 7 mph 1023.3mb 49f 50f
3:30am 6 7 mph 1023.2mb 49f 50f
3:24am 6 8 mph 1023.3mb 49f 50f
3:18am 7 9 mph 1023.3mb 49f 51f
3:12am  -  2 mph 1023.2mb 49f 51f
3:06am 1 3 mph 1023.2mb 49f 51f
3:00am 3 5 mph 1023.2mb 49f 51f
2:36am 6 7 mph 1023.1mb 49f 51f
2:30am 6 8 mph 1023.1mb 49f 51f
2:24am 6 10 mph 1023.1mb 49f 51f
2:18am 5 8 mph 1023mb 49f 51f
2:12am 3 8 mph 1023.1mb 49f 52f
2:06am 6 8 mph 1023mb 49f 52f
2:00am 6 8 mph 1022.9mb 49f 53f
12:36am 5 7 mph 1022.1mb 49f 52f
12:30am 5 7 mph 1022mb 49f 53f
12:24am 5 6 mph 1021.9mb 49f 53f
12:18am 1 2 mph 1021.7mb 49f 53f
12:12am 1 3 mph 1021.7mb 49f 53f
12:06am  -  6 mph 1021.8mb 49f 53f
12:00am 3 6 mph 1021.8mb 49f 53f
Thu 11/15 11:36pm 3 5 mph 1021.5mb 49f 52f
11:30pm 5 7 mph 1021.5mb 49f 51f
11:24pm 3 6 mph 1021.3mb 49f 50f
11:18pm 5 6 mph 1021.3mb 49f 50f
11:12pm 2 3 mph 1021.3mb 49f 49f
11:06pm 1 2 mph 1021.3mb 49f 50f
11:00pm 2 5 mph 1021.3mb 49f 50f
10:36pm 2 5 mph 1021.2mb 49f 50f
10:30pm 2 3 mph 1021.2mb 49f 50f
10:24pm 3 5 mph 1021.2mb 49f 50f
10:18pm 3 3 mph 1021.2mb 49f 50f
10:12pm 3 3 mph 1021.2mb 49f 50f
10:06pm 1 3 mph 1021.1mb 49f 50f
10:00pm 2 5 mph 1021.2mb 49f 50f
9:36pm 6 8 mph 1021.4mb 49f 50f
9:30pm 5 7 mph 1021.4mb 49f 50f
9:24pm 5 6 mph 1021.4mb 49f 50f
9:18pm 5 6 mph 1021.4mb 49f 50f
9:12pm 5 6 mph 1021.5mb 49f 50f
9:06pm 5 6 mph 1021.5mb 49f 50f
9:00pm 3 5 mph 1021.5mb 49f 49f
8:36pm 5 6 mph 1021.4mb 49f 50f
8:30pm 6 6 mph 1021.3mb 49f 50f
8:24pm 2 3 mph 1021.3mb 49f 50f
8:18pm 1 3 mph 1021.1mb 49f 50f
8:12pm 2 3 mph 1021mb 49f 50f
8:06pm 3 7 mph 1021.1mb 49f 50f
8:00pm 5 7 mph 1021.1mb 49f 50f
7:36pm 2 2 mph 1021.2mb 49f 50f
7:30pm  -  1 mph 1021.3mb 49f 50f
7:24pm  -  2 mph 1021.4mb 49f 50f
7:18pm 2 3 mph 1021.5mb 49f 50f
7:12pm  -  1 mph 1021.6mb 49f 50f
7:06pm 1 2 mph 1021.5mb 49f 50f
7:00pm 1 3 mph 1021.5mb 49f 50f
6:36pm 3 6 mph 1021.4mb 49f 50f
6:30pm 2 5 mph 1021.4mb 49f 51f
6:24pm 2 3 mph 1021.5mb 49f 51f
6:18pm 2 3 mph 1021.7mb 49f 51f
6:12pm 3 5 mph 1021.7mb 49f 51f
6:06pm 2 3 mph 1021.9mb 49f 51f
6:00pm 1 2 mph 1022mb 49f 51f
5:36pm 3 3 mph 1022mb 49f 51f
5:30pm 1 5 mph 1022mb 49f 52f
5:24pm 3 5 mph 1021.9mb 49f 52f
5:18pm  -  1 mph 1021.9mb 49f 51f
5:12pm  -  2 mph 1022mb 49f 51f
5:06pm 3 5 mph 1022.2mb 49f 52f
5:00pm 3 5 mph 1022.3mb 49f 52f
4:36pm 2 2 mph 1022.6mb 49f 52f
4:30pm  -  2 mph 1022.6mb 49f 52f
4:24pm 1 3 mph 1022.7mb 49f 52f
4:18pm 2 3 mph 1022.7mb 49f 52f
4:12pm 2 3 mph 1022.9mb 49f 52f
4:06pm 2 3 mph 1023.1mb 49f 52f
4:00pm 2 6 mph 1023.2mb 49f 52f
3:36pm 2 2 mph 1023.5mb 49f 51f
3:30pm 1 3 mph 1023.6mb 49f 52f
3:24pm  -  2 mph 1023.8mb 49f 52f
3:18pm  -  1 mph 1023.8mb 49f 52f
3:12pm  -  2 mph 1023.8mb 49f 52f
3:06pm 2 3 mph 1023.7mb 49f 52f
3:00pm 3 5 mph 1023.7mb 49f 52f
2:36pm 1 2 mph 1024mb 49f 51f
2:30pm 2 3 mph 1023.9mb 49f 51f
2:24pm 2 3 mph 1024.1mb 49f 51f
2:18pm 1 2 mph 1024.2mb 49f 51f
2:12pm 1 2 mph 1024.3mb 49f 51f
2:06pm  -  1 mph 1024.4mb 49f 51f
2:00pm 1 2 mph 1024.4mb 49f 51f
1:36pm 3 3 mph 1024.4mb 49f 50f
1:30pm 2 2 mph 1024.4mb 49f 50f
1:24pm 2 2 mph 1024.4mb 49f 50f
1:18pm 2 3 mph 1024.4mb 49f 50f
1:12pm 2 3 mph 1024.4mb 49f 50f
1:06pm 1 2 mph 1024.4mb 49f 50f
1:00pm  -  3 mph 1024.4mb 49f 51f
12:36pm 2 2 mph 1024.6mb 49f 50f
12:30pm 2 2 mph 1024.6mb 49f 50f
12:24pm 2 2 mph 1024.7mb 49f 51f
12:18pm 2 3 mph 1024.7mb 49f 50f
12:12pm 2 2 mph 1024.8mb 49f 51f
12:06pm 1 1 mph 1024.9mb 49f 52f
12:00pm  -  1 mph 1025.1mb 49f 51f
11:36am  -  2 mph 1025.7mb 49f 50f
11:30am 1 2 mph 1025.8mb 49f 50f
11:24am 1 2 mph 1025.8mb 49f 50f
11:18am 1 1 mph 1025.9mb 49f 50f
11:12am 1 3 mph 1026mb 49f 49f
11:06am 2 3 mph 1026mb 49f 49f
11:00am 1 2 mph 1026mb 49f 50f
10:36am 1 2 mph 1025.9mb 49f 51f
10:30am  -  1 mph 1025.8mb 49f 51f
10:24am  -  1 mph 1025.8mb 49f 50f
10:18am  -  1 mph 1025.9mb 49f 49f
10:12am 1 1 mph 1025.9mb 49f 49f
10:06am 1 2 mph 1025.9mb 49f 49f
10:00am  -  2 mph 1026mb 49f 49f
9:36am  -  1 mph 1026.2mb 49f 49f
9:30am  -  1 mph 1026.2mb 49f 48f
9:24am  -  2 mph 1026.2mb 49f 48f
9:18am 2 5 mph 1026.3mb 49f 48f
9:12am 3 5 mph 1026.3mb 49f 48f
9:06am 5 6 mph 1026.4mb 49f 48f
9:00am 3 6 mph 1026.4mb 49f 47f
8:36am 1 2 mph 1026.4mb 49f 47f
8:30am 1 3 mph 1026.4mb 49f 47f
8:24am 3 5 mph 1026.5mb 49f 47f
8:18am 2 3 mph 1026.6mb 49f 47f
8:12am 1 5 mph 1026.6mb 49f 47f
8:06am 5 6 mph 1026.7mb 49f 47f
8:00am 2 3 mph 1026.7mb 49f 46f
7:36am 5 6 mph 1027mb 49f 46f
7:30am  -  3 mph 1027mb 49f 47f
7:24am 1 3 mph 1026.9mb 49f 46f
7:18am 3 5 mph 1027mb 49f 46f
7:12am 2 3 mph 1027mb 49f 46f
7:06am 2 6 mph 1027mb 49f 46f
7:00am 3 6 mph 1027mb 49f 46f
6:36am 3 3 mph 1027.2mb 49f 46f
6:30am 3 5 mph 1027.3mb 49f 47f
6:24am 2 3 mph 1027.3mb 49f 47f
6:18am  -  3 mph 1027.4mb 49f 48f
6:12am 3 5 mph 1027.4mb 49f 47f
6:06am 3 7 mph 1027.3mb 49f 46f
6:00am 6 7 mph 1027.4mb 49f 47f
5:36am 2 3 mph 1027.4mb 49f 47f
5:30am 3 7 mph 1027.4mb 49f 47f
5:24am 7 8 mph 1027.5mb 49f 47f
5:18am 5 6 mph 1027.5mb 49f 47f
5:12am 2 5 mph 1027.5mb 49f 47f
5:06am 3 6 mph 1027.6mb 49f 48f
5:00am 5 7 mph 1027.7mb 49f 47f
4:36am 5 6 mph 1027.7mb 49f 48f
4:30am 6 7 mph 1027.7mb 49f 47f
4:24am 6 7 mph 1027.7mb 49f 47f
4:18am 6 8 mph 1027.7mb 49f 47f
4:12am 7 8 mph 1027.8mb 49f 47f
4:06am 7 8 mph 1027.9mb 49f 47f
4:00am 7 8 mph 1028mb 49f 47f
3:36am 6 7 mph 1028.1mb 49f 47f
3:30am 6 6 mph 1028.2mb 49f 47f
3:24am 5 7 mph 1028.2mb 49f 47f
3:18am 2 5 mph 1028.2mb 49f 48f
3:12am 5 5 mph 1028.2mb 49f 48f
3:06am 3 5 mph 1028.2mb 49f 47f
3:00am 2 5 mph 1028.1mb 49f 47f
2:36am 2 3 mph 1028.2mb 49f 46f
2:30am 1 2 mph 1028.2mb 49f 46f
2:24am 2 3 mph 1028.2mb 49f 47f
2:18am 2 5 mph 1028.2mb 49f 47f
2:12am 2 6 mph 1028.2mb 49f 47f
2:06am 5 6 mph 1028.2mb 49f 47f
2:00am 2 3 mph 1028.2mb 49f 47f
1:36am 3 6 mph 1028.5mb 49f 47f
1:30am 2 5 mph 1028.5mb 49f 47f
1:24am 3 5 mph 1028.5mb 49f 47f
1:18am 1 2 mph 1028.5mb 49f 48f
1:12am 3 7 mph 1028.5mb 49f 46f
1:06am 3 6 mph 1028.4mb 49f 46f
1:00am 3 5 mph 1028.4mb 49f 46f
12:36am 5 7 mph 1028.5mb 49f 45f
12:30am 6 7 mph 1028.6mb 49f 45f
12:24am 3 6 mph 1028.4mb 49f 45f
12:18am 5 7 mph 1028.3mb 49f 45f
12:12am 2 7 mph 1028.2mb 49f 46f
12:06am 6 6 mph 1028.2mb 49f 46f
12:00am 6 8 mph 1028.1mb 49f 46f
Wed 11/14 11:36pm 6 8 mph 1028.1mb 49f 45f
11:30pm 6 8 mph 1028mb 49f 45f